Time;durP1;ratioP1;P1;durP2;ratioP2;P2;SDS_P1;SDS_P2;PMS_P1;PMS_P2;Temp;Humidity;BMP_temperature;BMP_pressure;BME280_temperature;BME280_humidity;BME280_pressure;Samples;Min_cycle;Max_cycle;Signal;HPM_P1;HPM_P2
2024/02/10 06:00:29;;;;;;;;;;;;;;;;;;5964632;23;20968;-48
2024/02/10 06:02:55;;;;;;;;;;;;;;;;;;4969963;28;20001;-49
2024/02/10 06:05:22;;;;;;;;;;;;;;;;;;4969897;28;19910;-49
2024/02/10 06:07:52;;;;;;;;;;;;;;;;;;4969876;28;20008;-48
2024/02/10 06:10:18;;;;;;;;;;;;;;;;;;4969200;28;20858;-47
2024/02/10 06:12:44;;;;;;;;;;;;;;;;;;4970000;28;19914;-46
2024/02/10 06:15:10;;;;;;;;;;;;;;;;;;4970037;28;19910;-48
2024/02/10 06:17:38;;;;;;;;;;;;;;;;;;4969713;28;19936;-47
2024/02/10 06:20:07;;;;;;;;;;;;;;;;;;4969959;28;19915;-49
2024/02/10 06:22:32;;;;;;;;;;;;;;;;;;4969776;28;19917;-48
2024/02/10 06:24:58;;;;;;;;;;;;;;;;;;4970540;28;19910;-49
2024/02/10 06:27:24;;;;;;;;;;;;;;;;;;4970457;28;19929;-49
2024/02/10 06:29:50;;;;;;;;;;;;;;;;;;4969571;28;19915;-49
2024/02/10 06:32:16;;;;;;;;;;;;;;;;;;4969643;28;20004;-47
2024/02/10 06:34:42;;;;;;;;;;;;;;;;;;4952080;28;20001;-50
2024/02/10 06:37:08;;;;;;;;;;;;;;;;;;4952341;28;20388;-48
2024/02/10 06:39:34;;;;;;;;;;;;;;;;;;4969308;28;19914;-47
2024/02/10 06:42:00;;;;;;;;;;;;;;;;;;4969711;28;19910;-47
2024/02/10 06:44:26;;;;;;;;;;;;;;;;;;4969974;28;19910;-47
2024/02/10 06:46:51;;;;;;;;;;;;;;;;;;4969297;28;19914;-48
2024/02/10 06:49:20;;;;;;;;;;;;;;;;;;4969142;28;20348;-48
2024/02/10 06:51:46;;;;;;;;;;;;;;;;;;4968085;28;19914;-47
2024/02/10 06:54:12;;;;;;;;;;;;;;;;;;4970367;28;20254;-49
2024/02/10 06:56:38;;;;;;;;;;;;;;;;;;4970219;28;19910;-50
2024/02/10 06:59:04;;;;;;;;;;;;;;;;;;4970117;28;19921;-51
2024/02/10 07:01:32;;;;;;;;;;;;;;;;;;4966142;28;20412;-50
2024/02/10 07:03:58;;;;;;;;;;;;;;;;;;4961176;28;19915;-48
2024/02/10 07:06:24;;;;;;;;;;;;;;;;;;4952201;28;19970;-49
2024/02/10 07:08:51;;;;;;;;;;;;;;;;;;4953972;28;19942;-47
2024/02/10 07:11:17;;;;;;;;;;;;;;;;;;4970379;28;19962;-48
2024/02/10 07:13:43;;;;;;;;;;;;;;;;;;4970235;28;19946;-46
2024/02/10 07:16:09;;;;;;;;;;;;;;;;;;4968449;28;20053;-48
2024/02/10 07:18:47;;;;;;;;;;;;;;;;;;4968759;28;19915;-48
2024/02/10 07:21:14;;;;;;;;;;;;;;;;;;4970274;28;19910;-51
2024/02/10 07:23:40;;;;;;;;;;;;;;;;;;4967754;28;20274;-50
2024/02/10 07:26:06;;;;;;;;;;;;;;;;;;4970163;28;19921;-48
2024/02/10 07:28:34;;;;;;;;;;;;;;;;;;4965743;28;19921;-46
2024/02/10 07:31:02;;;;;;;;;;;;;;;;;;4970965;28;19911;-49
2024/02/10 07:33:28;;;;;;;;;;;;;;;;;;4969709;28;19922;-51
2024/02/10 07:35:54;;;;;;;;;;;;;;;;;;4957479;28;20282;-49
2024/02/10 07:38:23;;;;;;;;;;;;;;;;;;4950733;29;19965;-51
2024/02/10 07:40:49;;;;;;;;;;;;;;;;;;4957819;28;20282;-48
2024/02/10 07:43:16;;;;;;;;;;;;;;;;;;4963268;28;19922;-51
2024/02/10 07:45:42;;;;;;;;;;;;;;;;;;4970193;28;19917;-50
2024/02/10 07:48:08;;;;;;;;;;;;;;;;;;4970091;28;19918;-47
2024/02/10 07:50:36;;;;;;;;;;;;;;;;;;4970889;28;20373;-47
2024/02/10 07:53:02;;;;;;;;;;;;;;;;;;4970804;28;19949;-49
2024/02/10 07:55:28;;;;;;;;;;;;;;;;;;4960542;28;20436;-46
2024/02/10 07:57:56;;;;;;;;;;;;;;;;;;4956126;28;19957;-50
2024/02/10 08:00:22;;;;;;;;;;;;;;;;;;4970655;28;19910;-50
2024/02/10 08:02:47;;;;;;;;;;;;;;;;;;4967436;28;20389;-50
2024/02/10 08:05:20;;;;;;;;;;;;;;;;;;4957538;28;20001;-48
2024/02/10 08:07:45;;;;;;;;;;;;;;;;;;4952380;28;19914;-50
2024/02/10 08:10:11;;;;;;;;;;;;;;;;;;4966826;28;20262;-48
2024/02/10 08:12:38;;;;;;;;;;;;;;;;;;4971849;28;19910;-47
2024/02/10 08:15:08;;;;;;;;;;;;;;;;;;4974422;28;19921;-47
2024/02/10 08:17:34;;;;;;;;;;;;;;;;;;4974733;28;19937;-50
2024/02/10 08:20:02;;;;;;;;;;;;;;;;;;4970536;28;19921;-49
2024/02/10 08:22:30;;;;;;;;;;;;;;;;;;4973951;28;19965;-50
2024/02/10 08:24:56;;;;;;;;;;;;;;;;;;4973847;28;19910;-49
2024/02/10 08:27:25;;;;;;;;;;;;;;;;;;4973579;28;19937;-48
2024/02/10 08:29:51;;;;;;;;;;;;;;;;;;4973644;28;19910;-48
2024/02/10 08:32:17;;;;;;;;;;;;;;;;;;4973823;28;19917;-50
2024/02/10 08:34:43;;;;;;;;;;;;;;;;;;4970957;28;19921;-47
2024/02/10 08:37:09;;;;;;;;;;;;;;;;;;4970629;28;20017;-46
2024/02/10 08:39:35;;;;;;;;;;;;;;;;;;4972162;28;19918;-50
2024/02/10 08:42:05;;;;;;;;;;;;;;;;;;4971152;28;19970;-51
2024/02/10 08:44:31;;;;;;;;;;;;;;;;;;4972490;28;19920;-52
2024/02/10 08:46:59;;;;;;;;;;;;;;;;;;4958386;28;20328;-49
2024/02/10 08:49:25;;;;;;;;;;;;;;;;;;4956244;28;20017;-50
2024/02/10 08:51:54;;;;;;;;;;;;;;;;;;4970253;28;20025;-51
2024/02/10 08:54:20;;;;;;;;;;;;;;;;;;4969586;28;19910;-46
2024/02/10 08:56:46;;;;;;;;;;;;;;;;;;4973265;28;19917;-49
2024/02/10 08:59:12;;;;;;;;;;;;;;;;;;4961641;28;19910;-51
2024/02/10 09:01:41;;;;;;;;;;;;;;;;;;4956434;28;19918;-50
2024/02/10 09:04:07;;;;;;;;;;;;;;;;;;4966479;28;20387;-47
2024/02/10 09:06:33;;;;;;;;;;;;;;;;;;4973679;28;19914;-50
2024/02/10 09:08:59;;;;;;;;;;;;;;;;;;4972652;28;19914;-48
2024/02/10 09:11:25;;;;;;;;;;;;;;;;;;4972775;28;20239;-51
2024/02/10 09:13:52;;;;;;;;;;;;;;;;;;4972229;28;20009;-49
2024/02/10 09:16:18;;;;;;;;;;;;;;;;;;4971287;28;19914;-49
2024/02/10 09:18:44;;;;;;;;;;;;;;;;;;4972731;28;19920;-50
2024/02/10 09:21:09;;;;;;;;;;;;;;;;;;4971602;28;20009;-51
2024/02/10 09:23:35;;;;;;;;;;;;;;;;;;4973427;28;19932;-50
2024/02/10 09:26:01;;;;;;;;;;;;;;;;;;4972615;28;19965;-49
2024/02/10 09:28:29;;;;;;;;;;;;;;;;;;4972743;28;20295;-50
2024/02/10 09:30:55;;;;;;;;;;;;;;;;;;4960376;28;19921;-50
2024/02/10 09:33:21;;;;;;;;;;;;;;;;;;4967819;28;19914;-50
2024/02/10 09:35:48;;;;;;;;;;;;;;;;;;4960275;28;19915;-49
2024/02/10 09:38:14;;;;;;;;;;;;;;;;;;4982153;28;19918;-49
2024/02/10 09:40:41;;;;;;;;;;;;;;;;;;4971702;28;19916;-50
2024/02/10 09:43:07;;;;;;;;;;;;;;;;;;4972289;28;20390;-50
2024/02/10 09:45:34;;;;;;;;;;;;;;;;;;4971671;28;19949;-49
2024/02/10 09:47:59;;;;;;;;;;;;;;;;;;4969225;28;19928;-47
2024/02/10 09:50:28;;;;;;;;;;;;;;;;;;4971276;28;19915;-51
2024/02/10 09:52:55;;;;;;;;;;;;;;;;;;4968942;28;19921;-50
2024/02/10 09:55:21;;;;;;;;;;;;;;;;;;4958289;28;20308;-50
2024/02/10 09:57:47;;;;;;;;;;;;;;;;;;4952360;29;19911;-48
2024/02/10 10:00:13;;;;;;;;;;;;;;;;;;4971071;28;19965;-50
2024/02/10 10:02:38;;;;;;;;;;;;;;;;;;4971917;28;19925;-50
2024/02/10 10:05:04;;;;;;;;;;;;;;;;;;4971285;28;19917;-50
2024/02/10 10:07:30;;;;;;;;;;;;;;;;;;4971158;28;19918;-50
2024/02/10 10:09:56;;;;;;;;;;;;;;;;;;4971002;28;19917;-49
2024/02/10 10:12:22;;;;;;;;;;;;;;;;;;4953433;28;19969;-47
2024/02/10 10:14:48;;;;;;;;;;;;;;;;;;4971900;28;19910;-50
2024/02/10 10:17:14;;;;;;;;;;;;;;;;;;4971959;28;19914;-48
2024/02/10 10:19:40;;;;;;;;;;;;;;;;;;4972212;28;20292;-49
2024/02/10 10:22:05;;;;;;;;;;;;;;;;;;4971521;28;19910;-50
2024/02/10 10:24:31;;;;;;;;;;;;;;;;;;4971061;28;19921;-51
2024/02/10 10:27:02;;;;;;;;;;;;;;;;;;4970912;28;19937;-47
2024/02/10 10:29:33;;;;;;;;;;;;;;;;;;4970761;28;19997;-49
2024/02/10 10:32:01;;;;;;;;;;;;;;;;;;4970366;28;19916;-49
2024/02/10 10:34:28;;;;;;;;;;;;;;;;;;4970813;28;20388;-50
2024/02/10 10:36:54;;;;;;;;;;;;;;;;;;4953320;28;20033;-50
2024/02/10 10:39:20;;;;;;;;;;;;;;;;;;4970763;28;20004;-46
2024/02/10 10:41:46;;;;;;;;;;;;;;;;;;4970576;28;19910;-48
2024/02/10 10:44:12;;;;;;;;;;;;;;;;;;4970988;28;19917;-47
2024/02/10 10:46:38;;;;;;;;;;;;;;;;;;4970227;28;19914;-49
2024/02/10 10:49:03;;;;;;;;;;;;;;;;;;4951482;29;19914;-47
2024/02/10 10:51:31;;;;;;;;;;;;;;;;;;4951294;29;19919;-48
2024/02/10 10:53:57;;;;;;;;;;;;;;;;;;4951524;29;19918;-50
2024/02/10 10:56:24;;;;;;;;;;;;;;;;;;4961761;28;19914;-48
2024/02/10 10:58:50;;;;;;;;;;;;;;;;;;4970791;28;19910;-51
2024/02/10 11:01:16;;;;;;;;;;;;;;;;;;4971152;28;19921;-50
2024/02/10 11:03:42;;;;;;;;;;;;;;;;;;4971748;28;19914;-49
2024/02/10 11:06:09;;;;;;;;;;;;;;;;;;4961853;28;19997;-49
2024/02/10 11:08:35;;;;;;;;;;;;;;;;;;4974448;28;19910;-50
2024/02/10 11:11:01;;;;;;;;;;;;;;;;;;4970402;28;20289;-49
2024/02/10 11:13:28;;;;;;;;;;;;;;;;;;4969362;28;19996;-47
2024/02/10 11:15:54;;;;;;;;;;;;;;;;;;4955667;28;19922;-51
2024/02/10 11:18:20;;;;;;;;;;;;;;;;;;4961806;28;20049;-47
2024/02/10 11:20:47;;;;;;;;;;;;;;;;;;4969632;28;20265;-51
2024/02/10 11:23:13;;;;;;;;;;;;;;;;;;4971506;28;19918;-47
2024/02/10 11:25:40;;;;;;;;;;;;;;;;;;4969213;28;19915;-48
2024/02/10 11:28:06;;;;;;;;;;;;;;;;;;4969001;28;19914;-46
2024/02/10 11:30:32;;;;;;;;;;;;;;;;;;4968283;28;19969;-47
2024/02/10 11:32:58;;;;;;;;;;;;;;;;;;4970796;28;19961;-46
2024/02/10 11:35:24;;;;;;;;;;;;;;;;;;4970735;28;20385;-47
2024/02/10 11:37:50;;;;;;;;;;;;;;;;;;4970697;28;20004;-51
2024/02/10 11:40:19;;;;;;;;;;;;;;;;;;4955219;28;20286;-47
2024/02/10 11:42:45;;;;;;;;;;;;;;;;;;4961233;28;19950;-46
2024/02/10 11:45:11;;;;;;;;;;;;;;;;;;4973444;28;19957;-51
2024/02/10 11:47:37;;;;;;;;;;;;;;;;;;4965886;28;19918;-48
2024/02/10 11:50:04;;;;;;;;;;;;;;;;;;4954961;29;19910;-48
2024/02/10 11:52:32;;;;;;;;;;;;;;;;;;4955097;29;19911;-50
2024/02/10 11:54:58;;;;;;;;;;;;;;;;;;4954976;29;20005;-51
2024/02/10 11:57:23;;;;;;;;;;;;;;;;;;4968083;28;20432;-48
2024/02/10 11:59:49;;;;;;;;;;;;;;;;;;4974133;28;20404;-48
2024/02/10 12:02:17;;;;;;;;;;;;;;;;;;4974833;28;19950;-48
2024/02/10 12:04:43;;;;;;;;;;;;;;;;;;4969445;28;19922;-47
2024/02/10 12:07:12;;;;;;;;;;;;;;;;;;4972859;28;19918;-50
2024/02/10 12:09:37;;;;;;;;;;;;;;;;;;4965829;28;19918;-47
2024/02/10 12:12:03;;;;;;;;;;;;;;;;;;4973840;28;20343;-51
2024/02/10 12:14:30;;;;;;;;;;;;;;;;;;4972275;28;19921;-49
2024/02/10 12:16:55;;;;;;;;;;;;;;;;;;4975678;28;19914;-51
2024/02/10 12:19:21;;;;;;;;;;;;;;;;;;4961225;28;19914;-51
2024/02/10 12:21:47;;;;;;;;;;;;;;;;;;4962919;28;19914;-46
2024/02/10 12:24:13;;;;;;;;;;;;;;;;;;4972336;28;20333;-50
2024/02/10 12:26:39;;;;;;;;;;;;;;;;;;4971051;28;19922;-50
2024/02/10 12:29:09;;;;;;;;;;;;;;;;;;4971416;28;19918;-50
2024/02/10 12:31:35;;;;;;;;;;;;;;;;;;4972382;28;20387;-46
2024/02/10 12:34:04;;;;;;;;;;;;;;;;;;4969254;28;19914;-47
2024/02/10 12:36:31;;;;;;;;;;;;;;;;;;4971130;28;20570;-48
2024/02/10 12:38:57;;;;;;;;;;;;;;;;;;4971471;28;19966;-50
2024/02/10 12:41:23;;;;;;;;;;;;;;;;;;4971145;28;19914;-50
2024/02/10 12:43:52;;;;;;;;;;;;;;;;;;4967498;28;19965;-46
2024/02/10 12:46:18;;;;;;;;;;;;;;;;;;4954595;28;19965;-45
2024/02/10 12:48:44;;;;;;;;;;;;;;;;;;4968240;28;19953;-47
2024/02/10 12:51:10;;;;;;;;;;;;;;;;;;4971310;28;19914;-46
2024/02/10 12:53:36;;;;;;;;;;;;;;;;;;4973171;28;19914;-47
2024/02/10 12:56:05;;;;;;;;;;;;;;;;;;4964904;28;19922;-47
2024/02/10 12:58:31;;;;;;;;;;;;;;;;;;4972557;28;20332;-49
2024/02/10 13:00:57;;;;;;;;;;;;;;;;;;4971956;28;19918;-48
2024/02/10 13:03:23;;;;;;;;;;;;;;;;;;4970286;28;19914;-50
2024/02/10 13:05:52;;;;;;;;;;;;;;;;;;4968427;28;19910;-46
2024/02/10 13:08:17;;;;;;;;;;;;;;;;;;4959684;28;19922;-47
2024/02/10 13:10:45;;;;;;;;;;;;;;;;;;4967908;28;19988;-48
2024/02/10 13:13:11;;;;;;;;;;;;;;;;;;4970653;28;19964;-47
2024/02/10 13:15:43;;;;;;;;;;;;;;;;;;4971482;28;19910;-49
2024/02/10 13:18:09;;;;;;;;;;;;;;;;;;4962141;28;19918;-46
2024/02/10 13:20:35;;;;;;;;;;;;;;;;;;4970385;28;19914;-48
2024/02/10 13:23:01;;;;;;;;;;;;;;;;;;4971949;28;19917;-46
2024/02/10 13:25:27;;;;;;;;;;;;;;;;;;4971992;28;19953;-49
2024/02/10 13:27:52;;;;;;;;;;;;;;;;;;4970156;28;19914;-47
2024/02/10 13:30:18;;;;;;;;;;;;;;;;;;4971873;28;19914;-47
2024/02/10 13:32:44;;;;;;;;;;;;;;;;;;4968230;28;19910;-46
2024/02/10 13:35:13;;;;;;;;;;;;;;;;;;4970776;28;19945;-50
2024/02/10 14:10:12;;;;;;;;;;;;;;;;;;4961904;28;19914;-49
2024/02/10 14:12:38;;;;;;;;;;;;;;;;;;4959992;28;19922;-47
2024/02/10 14:15:16;;;;;;;;;;;;;;;;;;4967539;28;19925;-49
2024/02/10 14:17:42;;;;;;;;;;;;;;;;;;4966136;28;19929;-47
2024/02/10 14:20:22;;;;;;;;;;;;;;;;;;4966013;28;19915;-47
2024/02/10 14:22:48;;;;;;;;;;;;;;;;;;4965813;28;19914;-48
2024/02/10 14:25:23;;;;;;;;;;;;;;;;;;4965354;28;19965;-50
2024/02/10 14:27:54;;;;;;;;;;;;;;;;;;4964783;28;19918;-46
2024/02/10 14:30:31;;;;;;;;;;;;;;;;;;4961127;28;20288;-47
2024/02/10 14:32:57;;;;;;;;;;;;;;;;;;4962642;28;19922;-49
2024/02/10 14:35:44;;;;;;;;;;;;;;;;;;4966341;28;20001;-50
2024/02/10 14:38:23;;;;;;;;;;;;;;;;;;4963105;28;19914;-50
2024/02/10 14:40:49;;;;;;;;;;;;;;;;;;4963088;28;19914;-47
2024/02/10 14:43:16;;;;;;;;;;;;;;;;;;4965528;28;20304;-47
2024/02/10 14:45:42;;;;;;;;;;;;;;;;;;4943829;29;20017;-49
2024/02/10 14:48:08;;;;;;;;;;;;;;;;;;4959889;28;20021;-47
2024/02/10 14:50:34;;;;;;;;;;;;;;;;;;4966581;28;19918;-46
2024/02/10 14:53:00;;;;;;;;;;;;;;;;;;4961107;28;19922;-48
2024/02/10 14:55:28;;;;;;;;;;;;;;;;;;4965323;28;19933;-46
2024/02/10 14:57:54;;;;;;;;;;;;;;;;;;4959655;28;20060;-47
2024/02/10 15:00:23;;;;;;;;;;;;;;;;;;4965462;28;20012;-47
2024/02/10 15:02:49;;;;;;;;;;;;;;;;;;4965739;28;19925;-49
2024/02/10 15:05:15;;;;;;;;;;;;;;;;;;4962458;28;19918;-46
2024/02/10 15:07:41;;;;;;;;;;;;;;;;;;4964749;28;20041;-49
2024/02/10 15:10:07;;;;;;;;;;;;;;;;;;4965085;28;19914;-46
2024/02/10 15:12:33;;;;;;;;;;;;;;;;;;4963309;28;19921;-46
2024/02/10 15:14:59;;;;;;;;;;;;;;;;;;4960186;28;20297;-47
2024/02/10 15:17:25;;;;;;;;;;;;;;;;;;4966312;28;19969;-47
2024/02/10 15:19:50;;;;;;;;;;;;;;;;;;4966647;28;19914;-47
2024/02/10 15:22:19;;;;;;;;;;;;;;;;;;4970044;28;19914;-49
2024/02/10 15:24:44;;;;;;;;;;;;;;;;;;4969956;28;19926;-50
2024/02/10 15:27:12;;;;;;;;;;;;;;;;;;4965550;28;19926;-50
2024/02/10 15:29:38;;;;;;;;;;;;;;;;;;4969881;28;20012;-46
2024/02/10 15:32:04;;;;;;;;;;;;;;;;;;4963771;28;20392;-46
2024/02/10 15:34:36;;;;;;;;;;;;;;;;;;4970610;28;20385;-49
2024/02/10 15:37:02;;;;;;;;;;;;;;;;;;4968791;28;20012;-49
2024/02/10 15:39:27;;;;;;;;;;;;;;;;;;4969137;28;19949;-49
2024/02/10 15:41:53;;;;;;;;;;;;;;;;;;4968996;28;19923;-47
2024/02/10 15:44:20;;;;;;;;;;;;;;;;;;4970933;28;19918;-46
2024/02/10 15:46:46;;;;;;;;;;;;;;;;;;4968068;28;19918;-50
2024/02/10 15:49:12;;;;;;;;;;;;;;;;;;4967481;28;19921;-48
2024/02/10 15:51:38;;;;;;;;;;;;;;;;;;4968695;28;19914;-50
2024/02/10 15:54:04;;;;;;;;;;;;;;;;;;4968983;28;19992;-47
2024/02/10 15:56:30;;;;;;;;;;;;;;;;;;4968309;28;19977;-49
2024/02/10 15:58:57;;;;;;;;;;;;;;;;;;4966874;28;19929;-47
2024/02/10 16:01:24;;;;;;;;;;;;;;;;;;4963786;28;19981;-47
2024/02/10 16:03:50;;;;;;;;;;;;;;;;;;4967642;28;19918;-49
2024/02/10 16:06:16;;;;;;;;;;;;;;;;;;4969855;28;19969;-46
2024/02/10 16:08:43;;;;;;;;;;;;;;;;;;4965332;28;20419;-51
2024/02/10 16:11:09;;;;;;;;;;;;;;;;;;4967024;28;20347;-49
2024/02/10 16:13:37;;;;;;;;;;;;;;;;;;4967778;28;19914;-48
2024/02/10 16:16:03;;;;;;;;;;;;;;;;;;4969016;28;19910;-49
2024/02/10 16:18:30;;;;;;;;;;;;;;;;;;4967904;28;20212;-48
2024/02/10 16:20:56;;;;;;;;;;;;;;;;;;4966417;28;19914;-49
2024/02/10 16:23:22;;;;;;;;;;;;;;;;;;4966595;28;19989;-47
2024/02/10 16:25:51;;;;;;;;;;;;;;;;;;4949276;28;20441;-46
2024/02/10 16:28:17;;;;;;;;;;;;;;;;;;4962080;28;20545;-46
2024/02/10 16:30:44;;;;;;;;;;;;;;;;;;4970326;28;20333;-48
2024/02/10 16:33:13;;;;;;;;;;;;;;;;;;4958576;28;19958;-46
2024/02/10 16:35:41;;;;;;;;;;;;;;;;;;4951178;29;19910;-47
2024/02/10 16:38:09;;;;;;;;;;;;;;;;;;4939940;28;20381;-48
2024/02/10 16:40:35;;;;;;;;;;;;;;;;;;4966737;28;19969;-47
2024/02/10 16:43:02;;;;;;;;;;;;;;;;;;4968939;28;19964;-46
2024/02/10 16:45:29;;;;;;;;;;;;;;;;;;4967110;28;19918;-49
2024/02/10 16:47:55;;;;;;;;;;;;;;;;;;4946933;29;19922;-45
2024/02/10 16:50:23;;;;;;;;;;;;;;;;;;4961069;28;20135;-47
2024/02/10 16:52:48;;;;;;;;;;;;;;;;;;4965091;28;19960;-47
2024/02/10 16:55:15;;;;;;;;;;;;;;;;;;4965486;28;20377;-49
2024/02/10 16:57:45;;;;;;;;;;;;;;;;;;4962012;28;20389;-50
2024/02/10 17:00:11;;;;;;;;;;;;;;;;;;4965488;28;19976;-47
2024/02/10 17:02:37;;;;;;;;;;;;;;;;;;4968349;28;19958;-46
2024/02/10 17:05:04;;;;;;;;;;;;;;;;;;4965470;28;19919;-46
2024/02/10 17:07:31;;;;;;;;;;;;;;;;;;4963322;28;20471;-50
2024/02/10 17:09:57;;;;;;;;;;;;;;;;;;4967125;28;19921;-47
2024/02/10 17:12:24;;;;;;;;;;;;;;;;;;4966096;28;19914;-48
2024/02/10 17:14:50;;;;;;;;;;;;;;;;;;4949903;28;20393;-48
2024/02/10 17:17:22;;;;;;;;;;;;;;;;;;4963042;28;19914;-49
2024/02/10 17:19:47;;;;;;;;;;;;;;;;;;4947054;28;19926;-49
2024/02/10 17:22:15;;;;;;;;;;;;;;;;;;4964007;28;20088;-50
2024/02/10 17:24:41;;;;;;;;;;;;;;;;;;4964576;28;19914;-47
2024/02/10 17:27:07;;;;;;;;;;;;;;;;;;4967585;28;19925;-47
2024/02/10 17:29:34;;;;;;;;;;;;;;;;;;4966986;28;20155;-47
2024/02/10 17:32:00;;;;;;;;;;;;;;;;;;4945479;28;19974;-46
2024/02/10 17:34:26;;;;;;;;;;;;;;;;;;4968758;28;19957;-47
2024/02/10 17:36:51;;;;;;;;;;;;;;;;;;4966396;28;19914;-47
2024/02/10 17:39:17;;;;;;;;;;;;;;;;;;4963415;28;19914;-46
2024/02/10 17:41:43;;;;;;;;;;;;;;;;;;4963323;28;21890;-47
2024/02/10 17:44:12;;;;;;;;;;;;;;;;;;4967582;28;19965;-50
2024/02/10 17:46:38;;;;;;;;;;;;;;;;;;4969719;28;19951;-49
2024/02/10 17:49:09;;;;;;;;;;;;;;;;;;4968784;28;20455;-48
2024/02/10 17:51:37;;;;;;;;;;;;;;;;;;4965772;28;20458;-47
2024/02/10 17:54:04;;;;;;;;;;;;;;;;;;4961420;28;20607;-46
2024/02/10 17:56:36;;;;;;;;;;;;;;;;;;4949808;29;19918;-47
2024/02/10 17:59:02;;;;;;;;;;;;;;;;;;4962314;28;19918;-48
2024/02/10 18:01:28;;;;;;;;;;;;;;;;;;4967987;28;20191;-49
2024/02/10 18:04:04;;;;;;;;;;;;;;;;;;5080520;28;19975;-50
2024/02/10 18:06:30;;;;;;;;;;;;;;;;;;5079208;28;20110;-47
2024/02/10 18:08:56;;;;;;;;;;;;;;;;;;5076828;28;19916;-48
2024/02/10 18:11:22;;;;;;;;;;;;;;;;;;5077094;28;19913;-48
2024/02/10 18:13:49;;;;;;;;;;;;;;;;;;5073039;28;21472;-45
2024/02/10 18:16:15;;;;;;;;;;;;;;;;;;5071938;28;19912;-46
2024/02/10 18:18:41;;;;;;;;;;;;;;;;;;5063900;28;19922;-49
2024/02/10 18:21:07;;;;;;;;;;;;;;;;;;5066925;28;19939;-50
2024/02/10 18:23:34;;;;;;;;;;;;;;;;;;5069962;28;19921;-48
2024/02/10 18:26:00;;;;;;;;;;;;;;;;;;5068938;28;19986;-46
2024/02/10 18:28:29;;;;;;;;;;;;;;;;;;5065896;28;19916;-48
2024/02/10 18:30:57;;;;;;;;;;;;;;;;;;5068041;28;19920;-47
2024/02/10 18:33:23;;;;;;;;;;;;;;;;;;5071367;28;19916;-47
2024/02/10 18:35:48;;;;;;;;;;;;;;;;;;5071404;28;19924;-49
2024/02/10 18:38:15;;;;;;;;;;;;;;;;;;5078925;28;20362;-49
2024/02/10 18:40:41;;;;;;;;;;;;;;;;;;5069937;28;19924;-47
2024/02/10 18:43:07;;;;;;;;;;;;;;;;;;5077580;28;19996;-47
2024/02/10 18:45:34;;;;;;;;;;;;;;;;;;5081474;28;20362;-46
2024/02/10 18:48:00;;;;;;;;;;;;;;;;;;5078757;28;19962;-45
2024/02/10 18:50:26;;;;;;;;;;;;;;;;;;5078279;28;20464;-50
2024/02/10 18:52:53;;;;;;;;;;;;;;;;;;5076802;28;19912;-48
2024/02/10 18:55:19;;;;;;;;;;;;;;;;;;5082398;28;19916;-49
2024/02/10 18:57:45;;;;;;;;;;;;;;;;;;5076069;28;19919;-46
2024/02/10 19:00:13;;;;;;;;;;;;;;;;;;5073771;28;19917;-50
2024/02/10 19:02:39;;;;;;;;;;;;;;;;;;5076695;28;19916;-50
2024/02/10 19:05:05;;;;;;;;;;;;;;;;;;5072731;28;19912;-46
2024/02/10 19:07:33;;;;;;;;;;;;;;;;;;5074109;28;20382;-49
2024/02/10 19:09:59;;;;;;;;;;;;;;;;;;5074666;28;20390;-46
2024/02/10 19:12:25;;;;;;;;;;;;;;;;;;5075132;28;19919;-49
2024/02/10 19:14:51;;;;;;;;;;;;;;;;;;5065406;28;19913;-46
2024/02/10 19:17:17;;;;;;;;;;;;;;;;;;5060769;28;19917;-48
2024/02/10 19:19:43;;;;;;;;;;;;;;;;;;5062425;28;20318;-49
2024/02/10 19:22:09;;;;;;;;;;;;;;;;;;5053245;28;19924;-49
2024/02/10 19:24:38;;;;;;;;;;;;;;;;;;5060556;28;19912;-48
2024/02/10 19:27:04;;;;;;;;;;;;;;;;;;5052496;28;19920;-47
2024/02/10 19:29:31;;;;;;;;;;;;;;;;;;5056372;28;19912;-47
2024/02/10 19:31:57;;;;;;;;;;;;;;;;;;5058279;28;20131;-48
2024/02/10 19:34:23;;;;;;;;;;;;;;;;;;5052549;28;19916;-48
2024/02/10 19:36:49;;;;;;;;;;;;;;;;;;5053435;28;19912;-48
2024/02/10 19:39:15;;;;;;;;;;;;;;;;;;5058425;28;19939;-48
2024/02/10 19:41:45;;;;;;;;;;;;;;;;;;5052069;28;19912;-46
2024/02/10 19:44:12;;;;;;;;;;;;;;;;;;5048600;28;19940;-46
2024/02/10 19:46:38;;;;;;;;;;;;;;;;;;5048502;28;20307;-46
2024/02/10 19:49:08;;;;;;;;;;;;;;;;;;5061049;28;19995;-47
2024/02/10 19:51:36;;;;;;;;;;;;;;;;;;5045825;28;20003;-45
2024/02/10 19:54:02;;;;;;;;;;;;;;;;;;5059814;28;19966;-46
2024/02/10 19:56:28;;;;;;;;;;;;;;;;;;5053597;28;19913;-49
2024/02/10 19:58:54;;;;;;;;;;;;;;;;;;5053915;28;19912;-45
2024/02/10 20:01:20;;;;;;;;;;;;;;;;;;5047115;28;19935;-46
2024/02/10 20:03:46;;;;;;;;;;;;;;;;;;5056519;28;20002;-48
2024/02/10 20:06:12;;;;;;;;;;;;;;;;;;5054714;28;19913;-46
2024/02/10 20:08:38;;;;;;;;;;;;;;;;;;5056227;28;19917;-45
2024/02/10 20:11:03;;;;;;;;;;;;;;;;;;5060735;28;20116;-45
2024/02/10 20:13:29;;;;;;;;;;;;;;;;;;5052894;28;19964;-46
2024/02/10 20:15:57;;;;;;;;;;;;;;;;;;5061950;28;19983;-49
2024/02/10 20:18:22;;;;;;;;;;;;;;;;;;5054711;28;19919;-47
2024/02/10 20:20:48;;;;;;;;;;;;;;;;;;5053145;28;19999;-48
2024/02/10 20:23:16;;;;;;;;;;;;;;;;;;5049797;28;19917;-45
2024/02/10 20:25:42;;;;;;;;;;;;;;;;;;5056035;28;20315;-48
2024/02/10 20:28:10;;;;;;;;;;;;;;;;;;5058354;28;19912;-46
2024/02/10 20:30:37;;;;;;;;;;;;;;;;;;5041995;28;20287;-49
2024/02/10 20:33:03;;;;;;;;;;;;;;;;;;5046148;28;19917;-46
2024/02/10 20:35:29;;;;;;;;;;;;;;;;;;5047464;28;19913;-49
2024/02/10 20:37:55;;;;;;;;;;;;;;;;;;5060204;28;19919;-49
2024/02/10 20:40:23;;;;;;;;;;;;;;;;;;5045981;28;19924;-45
2024/02/10 20:42:49;;;;;;;;;;;;;;;;;;5059749;28;20312;-46
2024/02/10 20:45:15;;;;;;;;;;;;;;;;;;5044846;28;20007;-46
2024/02/10 20:47:41;;;;;;;;;;;;;;;;;;5061551;28;20227;-46
2024/02/10 20:50:10;;;;;;;;;;;;;;;;;;5052360;28;19920;-48
2024/02/10 20:52:36;;;;;;;;;;;;;;;;;;5054873;28;19961;-46
2024/02/10 20:55:02;;;;;;;;;;;;;;;;;;5048073;28;19963;-48
2024/02/10 20:57:29;;;;;;;;;;;;;;;;;;5053121;28;19912;-46
2024/02/10 20:59:56;;;;;;;;;;;;;;;;;;5063918;28;19912;-47
2024/02/10 21:02:27;;;;;;;;;;;;;;;;;;5058403;28;19917;-45
2024/02/10 21:04:53;;;;;;;;;;;;;;;;;;5047126;28;19944;-47
2024/02/10 21:07:21;;;;;;;;;;;;;;;;;;5050486;28;20519;-46
2024/02/10 21:09:47;;;;;;;;;;;;;;;;;;5056848;28;20332;-48
2024/02/10 21:12:12;;;;;;;;;;;;;;;;;;5059541;28;20007;-46
2024/02/10 21:14:42;;;;;;;;;;;;;;;;;;5058767;28;20019;-48
2024/02/10 21:17:07;;;;;;;;;;;;;;;;;;5062034;28;20046;-45
2024/02/10 21:19:33;;;;;;;;;;;;;;;;;;5058736;28;20011;-48
2024/02/10 21:22:01;;;;;;;;;;;;;;;;;;5066581;28;19917;-47
2024/02/10 21:24:28;;;;;;;;;;;;;;;;;;5063482;28;19913;-46
2024/02/10 21:26:56;;;;;;;;;;;;;;;;;;5052699;28;20369;-45
2024/02/10 21:29:22;;;;;;;;;;;;;;;;;;5055107;28;20453;-45
2024/02/10 21:31:48;;;;;;;;;;;;;;;;;;5050529;28;19913;-48
2024/02/10 21:34:14;;;;;;;;;;;;;;;;;;5056875;28;19912;-47
2024/02/10 21:36:40;;;;;;;;;;;;;;;;;;5057681;28;19928;-49
2024/02/10 21:39:10;;;;;;;;;;;;;;;;;;5046455;28;19952;-48
2024/02/10 21:41:36;;;;;;;;;;;;;;;;;;5054146;28;19955;-45
2024/02/10 21:44:03;;;;;;;;;;;;;;;;;;5061125;28;21249;-46
2024/02/10 21:46:30;;;;;;;;;;;;;;;;;;5059534;28;19921;-47
2024/02/10 21:48:56;;;;;;;;;;;;;;;;;;5055143;28;20322;-48
2024/02/10 21:51:22;;;;;;;;;;;;;;;;;;5052553;28;19923;-46
2024/02/10 21:53:48;;;;;;;;;;;;;;;;;;5065752;28;19958;-48
2024/02/10 21:56:14;;;;;;;;;;;;;;;;;;5058702;28;19956;-45
2024/02/10 21:58:47;;;;;;;;;;;;;;;;;;5065547;28;19963;-46
2024/02/10 22:01:16;;;;;;;;;;;;;;;;;;5059744;28;19951;-46
2024/02/10 22:03:43;;;;;;;;;;;;;;;;;;5046409;28;21958;-47
2024/02/10 22:06:09;;;;;;;;;;;;;;;;;;5045745;28;19916;-47
2024/02/10 22:08:35;;;;;;;;;;;;;;;;;;5048518;28;19919;-48
2024/02/10 22:11:01;;;;;;;;;;;;;;;;;;5045593;28;20383;-45
2024/02/10 22:13:26;;;;;;;;;;;;;;;;;;5049201;28;19913;-45
2024/02/10 22:15:54;;;;;;;;;;;;;;;;;;5045254;28;20125;-46
2024/02/10 22:18:21;;;;;;;;;;;;;;;;;;5046404;28;19946;-45
2024/02/10 22:20:47;;;;;;;;;;;;;;;;;;5046672;28;19966;-46
2024/02/10 22:23:13;;;;;;;;;;;;;;;;;;5045895;28;20341;-45
2024/02/10 22:25:44;;;;;;;;;;;;;;;;;;5046197;28;19916;-48
2024/02/10 22:28:10;;;;;;;;;;;;;;;;;;5046167;28;19920;-47
2024/02/10 22:30:35;;;;;;;;;;;;;;;;;;5045846;28;19913;-46
2024/02/10 22:33:01;;;;;;;;;;;;;;;;;;5046121;28;19917;-48
2024/02/10 22:35:28;;;;;;;;;;;;;;;;;;5044722;28;20002;-46
2024/02/10 22:37:56;;;;;;;;;;;;;;;;;;5046190;28;20013;-46
2024/02/10 22:40:26;;;;;;;;;;;;;;;;;;5045726;28;19908;-45
2024/02/10 22:42:53;;;;;;;;;;;;;;;;;;5038036;28;19950;-47
2024/02/10 22:45:22;;;;;;;;;;;;;;;;;;5046336;28;19912;-46
2024/02/10 22:47:48;;;;;;;;;;;;;;;;;;5045685;28;20016;-47
2024/02/10 22:50:16;;;;;;;;;;;;;;;;;;5048409;28;20007;-48
2024/02/10 22:52:42;;;;;;;;;;;;;;;;;;5050115;28;19920;-45
2024/02/10 22:55:09;;;;;;;;;;;;;;;;;;5049685;28;20284;-46
2024/02/10 22:57:36;;;;;;;;;;;;;;;;;;5049778;28;19909;-47
2024/02/10 23:00:03;;;;;;;;;;;;;;;;;;5057830;28;19966;-48
2024/02/10 23:02:31;;;;;;;;;;;;;;;;;;5049761;28;19916;-49
2024/02/10 23:04:57;;;;;;;;;;;;;;;;;;5049954;28;19917;-46
2024/02/10 23:07:22;;;;;;;;;;;;;;;;;;5049068;28;19971;-47
2024/02/10 23:09:48;;;;;;;;;;;;;;;;;;5050089;28;19924;-49
2024/02/10 23:12:21;;;;;;;;;;;;;;;;;;5049577;28;20027;-46
2024/02/10 23:14:46;;;;;;;;;;;;;;;;;;5050131;28;19920;-47